Palomar Mountain, California
Current Conditions -  °F | °C
As of 2:50 AM on Saturday 22 Nov 2014 (Local Time) from KRNM Reporting Station
Moderate Fog Moderate Fog  
Wind Chill: 41°   Ceiling: 300
Heat Index: 41°   Visibility: 0.25mi
Dew Point: 39°   Wind: 0mph
Humidity: 93%   Direction: NA
Pressure: 30.08"   Gusts: NA
Location:  33.33°N, 116.84°W
Report Text: KRNM 221050Z AUTO 00000KT 1/4SM FG VV003 05/04 A3008 RMK AO2
Loading
Personal Weather Stations






























Interactive Weather Map New forecast layout! Learn more

10-Day Weather Forecast

Advertisements
Track Severe Weather on mobile